Time;durP1;ratioP1;P1;durP2;ratioP2;P2;SDS_P1;SDS_P2;PMS_P1;PMS_P2;Temp;Humidity;BMP_temperature;BMP_pressure;BME280_temperature;BME280_humidity;BME280_pressure;Samples;Min_cycle;Max_cycle;Signal;HPM_P1;HPM_P2
2023/10/28 00:02:10;;;;;;;81.03;37.55;;;9.60;99.90;;;;;;6046581;23;20015;-88
2023/10/28 00:04:43;;;;;;;91.70;38.80;;;8.80;99.90;;;;;;6047854;23;20450;-88
2023/10/28 00:07:11;;;;;;;91.75;38.95;;;9.70;99.90;;;;;;6045812;23;20101;-88
2023/10/28 00:09:38;;;;;;;90.90;39.50;;;9.60;99.90;;;;;;6046000;23;20471;-89
2023/10/28 00:12:09;;;;;;;80.38;36.60;;;9.70;99.90;;;;;;6070094;23;20019;-89
2023/10/28 00:14:35;;;;;;;88.40;39.75;;;9.70;99.90;;;;;;6046732;23;20343;-89
2023/10/28 00:17:13;;;;;;;;;;;;;;;;;;;;;
2023/10/28 00:19:44;;;;;;;86.65;41.08;;;9.70;99.90;;;;;;6028331;23;20015;-89
2023/10/28 00:22:16;;;;;;;97.72;42.03;;;9.70;99.90;;;;;;6023584;23;20089;-89
2023/10/28 00:24:47;;;;;;;94.25;42.75;;;9.70;99.90;;;;;;6070976;23;20411;-88
2023/10/28 00:27:15;;;;;;;84.88;40.35;;;9.70;99.90;;;;;;6045506;23;20105;-88
2023/10/28 00:29:57;;;;;;;86.75;39.90;;;9.60;99.90;;;;;;6046740;23;20018;-88
2023/10/28 00:32:23;;;;;;;116.15;45.83;;;9.70;99.90;;;;;;6024190;23;20023;-90
2023/10/28 00:34:49;;;;;;;114.57;47.23;;;9.60;99.90;;;;;;6047012;23;20078;-88
2023/10/28 00:37:27;;;;;;;92.72;45.33;;;9.60;99.90;;;;;;6070273;23;20014;-89
2023/10/28 00:39:56;;;;;;;90.05;41.80;;;9.60;99.90;;;;;;6025162;23;20097;-89
2023/10/28 00:42:27;;;;;;;97.68;45.72;;;9.70;99.90;;;;;;6070669;23;20026;-89
2023/10/28 00:45:02;;;;;;;97.60;46.13;;;9.60;99.90;;;;;;6047460;23;20061;-88
2023/10/28 00:47:28;;;;;;;101.30;46.20;;;9.60;99.90;;;;;;6024480;23;20019;-89
2023/10/28 00:49:59;;;;;;;99.55;47.53;;;9.60;99.90;;;;;;6046496;23;20514;-89
2023/10/28 00:52:28;;;;;;;104.03;47.00;;;9.60;99.90;;;;;;6070136;23;20022;-89
2023/10/28 00:54:56;;;;;;;111.38;48.17;;;9.70;99.90;;;;;;6047078;23;20073;-87
2023/10/28 00:57:36;;;;;;;;;;;;;;;;;;;;;
2023/10/28 01:00:08;;;;;;;118.07;49.70;;;9.70;99.90;;;;;;6069536;23;20026;-92
2023/10/28 01:02:48;;;;;;;119.03;52.75;;;9.10;99.90;;;;;;6045928;23;20026;-89
2023/10/28 01:05:16;;;;;;;106.55;49.97;;;9.60;99.90;;;;;;6044293;23;20106;-89
2023/10/28 01:07:47;;;;;;;108.50;48.50;;;9.70;99.90;;;;;;6070383;23;20050;-89
2023/10/28 01:10:24;;;;;;;94.32;46.05;;;9.70;99.90;;;;;;6046034;23;20034;-89
2023/10/28 01:12:52;;;;;;;95.32;45.28;;;9.70;99.90;;;;;;6070532;23;20026;-88
2023/10/28 01:15:17;;;;;;;87.50;43.92;;;9.60;99.90;;;;;;6045527;23;20018;-89
2023/10/28 01:17:45;;;;;;;86.93;42.10;;;9.70;99.90;;;;;;6069599;23;20050;-88
2023/10/28 01:20:18;;;;;;;97.35;44.95;;;9.70;99.90;;;;;;6022638;23;20278;-89
2023/10/28 01:22:44;;;;;;;88.47;42.35;;;9.70;99.90;;;;;;6048141;23;20090;-89
2023/10/28 01:25:12;;;;;;;103.07;46.10;;;9.70;99.90;;;;;;6047401;23;20022;-88
2023/10/28 01:27:40;;;;;;;87.82;41.30;;;9.60;99.90;;;;;;6047931;23;20250;-89
2023/10/28 01:30:13;;;;;;;84.15;42.03;;;9.70;99.90;;;;;;6072320;23;20018;-93
2023/10/28 01:32:47;;;;;;;87.38;43.35;;;9.70;99.90;;;;;;6048610;23;20022;-88
2023/10/28 01:35:16;;;;;;;92.97;43.58;;;9.60;99.90;;;;;;6071923;23;20019;-88
2023/10/28 01:37:47;;;;;;;81.65;40.75;;;10.30;99.90;;;;;;6048413;23;20029;-89
2023/10/28 01:40:17;;;;;;;87.78;41.97;;;9.60;99.90;;;;;;6048017;23;20023;-89
2023/10/28 01:42:50;;;;;;;79.00;40.33;;;9.50;99.90;;;;;;6048502;23;20427;-88
2023/10/28 01:45:17;;;;;;;81.28;40.28;;;9.50;99.90;;;;;;6072054;23;20026;-88
2023/10/28 01:47:47;;;;;;;;;;;9.50;99.90;;;;;;6073006;23;20473;-88
2023/10/28 01:50:20;;;;;;;70.40;38.42;;;10.10;99.90;;;;;;6048555;23;19968;-88
2023/10/28 01:52:48;;;;;;;77.55;40.20;;;9.40;99.90;;;;;;6048751;23;20105;-88
2023/10/28 01:55:27;;;;;;;81.03;39.53;;;9.40;99.90;;;;;;6048366;23;20443;-89
2023/10/28 01:57:52;;;;;;;73.88;37.10;;;9.40;99.90;;;;;;6026383;23;20891;-88
2023/10/28 02:00:22;;;;;;;75.50;38.63;;;9.40;99.90;;;;;;6047063;23;20085;-88
2023/10/28 02:03:02;;;;;;;;;;;;;;;;;;;;;
2023/10/28 02:05:35;;;;;;;83.53;40.08;;;9.00;99.90;;;;;;6072013;23;20061;-89
2023/10/28 02:08:03;;;;;;;74.90;37.72;;;9.30;99.90;;;;;;6072454;23;20018;-89
2023/10/28 02:10:32;;;;;;;69.05;37.60;;;9.30;99.90;;;;;;6024602;23;20021;-87
2023/10/28 02:12:59;;;;;;;70.85;39.42;;;8.60;99.90;;;;;;6071690;23;20054;-88
2023/10/28 02:15:48;;;;;;;70.32;38.65;;;9.30;99.90;;;;;;6047575;23;20423;-88
2023/10/28 02:18:18;;;;;;;71.85;38.20;;;9.30;99.90;;;;;;6071381;23;20019;-91
2023/10/28 02:20:58;;;;;;;80.30;39.42;;;9.30;99.90;;;;;;6048599;23;20022;-88
2023/10/28 02:23:27;;;;;;;63.55;34.35;;;8.40;99.90;;;;;;6026199;23;20029;-88
2023/10/28 02:26:01;;;;;;;62.28;35.78;;;9.20;99.90;;;;;;6047964;23;20351;-89
2023/10/28 02:28:34;;;;;;;65.50;38.05;;;9.20;99.90;;;;;;6070824;23;20061;-89
2023/10/28 02:31:10;;;;;;;63.15;37.28;;;9.10;99.90;;;;;;6047500;23;20026;-88
2023/10/28 02:33:47;;;;;;;63.13;35.53;;;9.10;99.90;;;;;;6071611;23;20101;-88
2023/10/28 02:36:17;;;;;;;65.40;36.05;;;9.20;99.90;;;;;;6071884;23;20057;-88
2023/10/28 02:38:55;;;;;;;76.72;40.78;;;9.10;99.90;;;;;;6072163;23;20019;-88
2023/10/28 02:41:24;;;;;;;58.55;33.88;;;9.10;99.90;;;;;;6072336;23;20018;-89
2023/10/28 02:43:50;;;;;;;65.80;37.10;;;9.00;99.90;;;;;;6072137;23;20015;-88
2023/10/28 02:46:22;;;;;;;62.50;36.73;;;9.00;99.90;;;;;;6071961;23;20022;-89
2023/10/28 02:48:48;;;;;;;69.72;36.20;;;8.20;99.90;;;;;;6048816;23;20367;-88
2023/10/28 02:51:14;;;;;;;61.97;34.43;;;9.00;99.90;;;;;;6048033;23;20030;-89
2023/10/28 02:53:40;;;;;;;65.43;35.43;;;9.00;99.90;;;;;;6023851;23;20022;-88
2023/10/28 02:56:06;;;;;;;59.97;33.58;;;9.20;99.90;;;;;;6048077;23;20355;-89
2023/10/28 02:58:34;;;;;;;60.63;35.10;;;9.00;99.90;;;;;;6023002;23;20036;-88
2023/10/28 03:01:11;;;;;;;55.83;33.60;;;9.00;99.90;;;;;;6095340;23;20026;-89
2023/10/28 03:03:41;;;;;;;46.72;30.23;;;8.60;99.90;;;;;;6070936;23;20747;-88
2023/10/28 03:06:10;;;;;;;53.38;30.33;;;9.00;99.90;;;;;;6048573;23;20485;-89
2023/10/28 03:08:38;;;;;;;54.95;31.05;;;9.00;99.90;;;;;;6071263;23;20023;-88
2023/10/28 03:11:04;;;;;;;57.42;31.00;;;9.00;99.90;;;;;;6072011;23;20015;-88
2023/10/28 03:13:30;;;;;;;49.92;28.05;;;8.10;99.90;;;;;;6071348;23;20061;-87
2023/10/28 03:15:58;;;;;;;54.87;30.77;;;8.90;99.90;;;;;;6071427;23;20018;-86
2023/10/28 03:18:41;;;;;;;48.75;28.70;;;9.00;99.90;;;;;;6071195;23;20438;-87
2023/10/28 03:21:12;;;;;;;54.58;29.48;;;9.00;99.90;;;;;;6071701;23;20110;-88
2023/10/28 03:23:41;;;;;;;54.15;32.67;;;9.00;99.90;;;;;;6070593;23;20089;-87
2023/10/28 03:26:17;;;;;;;47.38;29.48;;;9.00;99.90;;;;;;6023775;23;20019;-87
2023/10/28 03:28:47;;;;;;;57.90;32.33;;;8.10;99.90;;;;;;6046310;23;20030;-89
2023/10/28 03:31:15;;;;;;;51.30;29.63;;;9.10;99.90;;;;;;6047281;23;20105;-88
2023/10/28 03:33:46;;;;;;;50.30;29.67;;;9.00;99.90;;;;;;6070724;23;20021;-88
2023/10/28 03:36:14;;;;;;;61.20;31.88;;;9.00;99.90;;;;;;6071437;23;20041;-88
2023/10/28 03:38:42;;;;;;;52.85;30.55;;;9.00;99.90;;;;;;6046678;23;20399;-88
2023/10/28 03:41:11;;;;;;;57.80;31.73;;;9.10;99.90;;;;;;6023435;23;20548;-88
2023/10/28 03:43:38;;;;;;;54.47;29.63;;;9.10;99.90;;;;;;6070645;23;20094;-89
2023/10/28 03:46:04;;;;;;;51.42;30.05;;;9.10;99.90;;;;;;6071151;23;20029;-88
2023/10/28 03:48:48;;;;;;;57.08;31.05;;;9.10;99.90;;;;;;6070313;23;20085;-88
2023/10/28 03:51:14;;;;;;;48.33;28.90;;;9.10;99.90;;;;;;6070980;23;20015;-88
2023/10/28 03:53:40;;;;;;;54.73;29.00;;;9.00;99.90;;;;;;6046850;23;20022;-88
2023/10/28 03:56:08;;;;;;;56.30;30.03;;;9.10;99.90;;;;;;6095075;23;20018;-88
2023/10/28 03:58:34;;;;;;;47.45;29.30;;;9.20;99.90;;;;;;6046040;23;20050;-88
2023/10/28 04:01:03;;;;;;;55.85;31.90;;;9.10;99.90;;;;;;6070354;23;20085;-88
2023/10/28 04:03:32;;;;;;;49.47;30.30;;;8.50;99.90;;;;;;6070996;23;20022;-91
2023/10/28 04:06:01;;;;;;;52.20;27.50;;;8.40;99.90;;;;;;6071274;23;20019;-88
2023/10/28 04:08:34;;;;;;;49.20;28.20;;;9.10;99.90;;;;;;6046834;23;20042;-88
2023/10/28 04:11:14;;;;;;;50.75;27.65;;;9.10;99.90;;;;;;6048030;23;20347;-88
2023/10/28 04:13:46;;;;;;;46.17;27.52;;;9.10;99.90;;;;;;6047450;23;20027;-88
2023/10/28 04:16:17;;;;;;;48.28;26.30;;;9.40;99.90;;;;;;6002290;23;20450;-88
2023/10/28 04:18:45;;;;;;;42.42;26.38;;;9.10;99.90;;;;;;6070937;23;20381;-88
2023/10/28 04:21:17;;;;;;;46.13;27.52;;;9.20;99.90;;;;;;6071420;23;20026;-88
2023/10/28 04:23:48;;;;;;;45.60;28.60;;;9.10;99.90;;;;;;6070726;23;20458;-88
2023/10/28 04:26:14;;;;;;;47.08;27.92;;;9.20;99.90;;;;;;6024377;23;20450;-88
2023/10/28 04:28:40;;;;;;;51.40;30.70;;;9.20;99.90;;;;;;6070627;23;20061;-88
2023/10/28 04:31:05;;;;;;;51.50;30.33;;;9.20;99.90;;;;;;6070776;23;20362;-88
2023/10/28 04:33:33;;;;;;;63.57;33.07;;;9.20;99.90;;;;;;6070771;23;20025;-90
2023/10/28 04:35:59;;;;;;;53.80;29.95;;;9.20;99.90;;;;;;6071656;23;20459;-88
2023/10/28 04:38:25;;;;;;;56.37;30.90;;;9.20;99.90;;;;;;6070655;23;20110;-87
2023/10/28 04:40:57;;;;;;;55.95;32.92;;;9.10;99.90;;;;;;6070232;23;20085;-88
2023/10/28 04:43:26;;;;;;;54.60;31.35;;;9.20;99.90;;;;;;6070876;23;20057;-88
2023/10/28 04:45:58;;;;;;;54.13;32.25;;;9.10;99.90;;;;;;6094471;23;20050;-89
2023/10/28 04:48:35;;;;;;;70.65;35.28;;;9.10;99.90;;;;;;6047627;23;20018;-88
2023/10/28 04:51:02;;;;;;;60.92;33.05;;;9.10;99.90;;;;;;6071010;23;20045;-88
2023/10/28 04:53:31;;;;;;;60.92;32.20;;;9.10;99.90;;;;;;6070765;23;20027;-88
2023/10/28 04:55:57;;;;;;;65.90;33.47;;;9.10;99.90;;;;;;6069710;23;20113;-88
2023/10/28 04:58:26;;;;;;;67.00;34.83;;;9.10;99.90;;;;;;6070710;23;20027;-88
2023/10/28 05:00:54;;;;;;;81.03;36.05;;;9.10;99.90;;;;;;6071233;23;20035;-88
2023/10/28 05:03:26;;;;;;;66.10;35.90;;;9.10;99.90;;;;;;6073135;23;20025;-89
2023/10/28 05:06:09;;;;;;;63.78;32.35;;;9.10;99.90;;;;;;6072169;23;20025;-89
2023/10/28 05:08:38;;;;;;;71.07;32.92;;;9.10;99.90;;;;;;6049221;23;20019;-89
2023/10/28 05:11:16;;;;;;;66.65;34.60;;;8.90;99.90;;;;;;6026143;23;20510;-89
2023/10/28 05:13:45;;;;;;;67.60;33.33;;;9.20;99.90;;;;;;6049841;23;20027;-89
2023/10/28 05:16:16;;;;;;;67.25;33.85;;;9.10;99.90;;;;;;6072341;23;20343;-88
2023/10/28 05:18:54;;;;;;;65.70;33.53;;;9.20;99.90;;;;;;6071978;23;20125;-89
2023/10/28 05:21:22;;;;;;;56.67;31.73;;;9.20;99.90;;;;;;6072325;23;20019;-88
2023/10/28 05:24:00;;;;;;;59.15;31.42;;;9.20;99.90;;;;;;6071727;23;20018;-88
2023/10/28 05:26:26;;;;;;;56.25;30.20;;;9.20;99.90;;;;;;6072509;23;20054;-88
2023/10/28 05:28:54;;;;;;;63.33;32.47;;;9.20;99.90;;;;;;6071348;23;20025;-89
2023/10/28 05:31:27;;;;;;;50.70;28.42;;;9.20;99.90;;;;;;6048347;23;20343;-89
2023/10/28 05:33:55;;;;;;;57.17;30.80;;;9.20;99.90;;;;;;6048193;23;20327;-88
2023/10/28 05:36:24;;;;;;;59.20;31.45;;;9.30;99.90;;;;;;6096770;23;20477;-88
2023/10/28 05:38:54;;;;;;;52.35;27.42;;;9.20;99.90;;;;;;6072354;23;20014;-88
2023/10/28 05:41:22;;;;;;;48.92;26.58;;;9.30;99.90;;;;;;6072632;23;20057;-88
2023/10/28 05:43:48;;;;;;;51.25;28.25;;;9.30;99.90;;;;;;6072344;23;20014;-88
2023/10/28 05:46:19;;;;;;;48.63;26.50;;;9.30;99.90;;;;;;6072791;23;20056;-89
2023/10/28 05:48:50;;;;;;;50.97;26.65;;;9.30;99.90;;;;;;6072168;23;20022;-89
2023/10/28 05:51:22;;;;;;;44.88;26.42;;;9.30;99.90;;;;;;6048298;23;20018;-89
2023/10/28 05:53:48;;;;;;;46.95;26.48;;;9.30;99.90;;;;;;6071734;23;20072;-88
2023/10/28 05:56:16;;;;;;;41.80;25.30;;;8.40;99.90;;;;;;6071894;23;20019;-89
2023/10/28 05:58:48;;;;;;;43.15;26.73;;;9.40;99.90;;;;;;6071573;23;20022;-89
2023/10/28 06:01:16;;;;;;;43.25;26.10;;;9.30;99.90;;;;;;6048227;23;20026;-89
2023/10/28 06:03:42;;;;;;;44.40;25.73;;;9.30;99.90;;;;;;6072002;23;20020;-88
2023/10/28 06:06:08;;;;;;;44.50;23.30;;;9.30;99.90;;;;;;6071515;23;20093;-89
2023/10/28 06:08:34;;;;;;;42.53;24.63;;;9.40;99.90;;;;;;6071729;23;20046;-88
2023/10/28 06:11:11;;;;;;;48.27;26.23;;;8.90;99.90;;;;;;6070662;23;20021;-88
2023/10/28 06:13:37;;;;;;;39.25;23.25;;;9.30;99.90;;;;;;6072162;23;20093;-89
2023/10/28 06:16:03;;;;;;;35.33;22.33;;;9.40;99.90;;;;;;6070909;23;20076;-89
2023/10/28 06:18:29;;;;;;;41.50;22.50;;;8.60;99.90;;;;;;6072042;23;20018;-88
2023/10/28 06:20:58;;;;;;;33.00;20.27;;;9.30;99.90;;;;;;6071538;23;20446;-88
2023/10/28 06:23:29;;;;;;;39.05;22.75;;;9.30;99.90;;;;;;6047876;23;20074;-88
2023/10/28 06:25:59;;;;;;;38.85;23.23;;;9.10;99.90;;;;;;6070688;23;20029;-89
2023/10/28 06:28:25;;;;;;;31.05;19.90;;;9.40;99.90;;;;;;6071209;23;20029;-85
2023/10/28 06:30:52;;;;;;;33.80;20.60;;;9.50;99.90;;;;;;6095062;23;20018;-84
2023/10/28 06:33:18;;;;;;;39.88;21.58;;;9.40;99.90;;;;;;6071200;23;20022;-84
2023/10/28 06:35:44;;;;;;;29.53;18.70;;;9.50;99.90;;;;;;6071536;23;20029;-83
2023/10/28 06:38:10;;;;;;;33.20;18.83;;;9.50;99.90;;;;;;6046792;23;20263;-83
2023/10/28 06:40:37;;;;;;;25.95;17.73;;;9.50;99.90;;;;;;6070690;23;20463;-83
2023/10/28 06:43:04;;;;;;;29.92;17.40;;;9.50;99.90;;;;;;5998403;23;20022;-83
2023/10/28 06:45:29;;;;;;;;;;;9.50;99.90;;;;;;6095775;23;20018;-83
2023/10/28 06:47:55;;;;;;;31.92;17.55;;;9.50;99.90;;;;;;6070286;23;19917;-86
2023/10/28 06:50:21;;;;;;;27.53;17.23;;;9.50;99.90;;;;;;6046596;23;20022;-85
2023/10/28 06:52:50;;;;;;;25.87;16.80;;;9.50;99.90;;;;;;6097210;23;20026;-84
2023/10/28 06:55:16;;;;;;;28.08;15.70;;;9.50;99.90;;;;;;6070371;23;20018;-86
2023/10/28 06:57:42;;;;;;;;;;;9.60;99.90;;;;;;6070689;23;20029;-85
2023/10/28 07:00:17;;;;;;;26.95;16.98;;;9.60;99.90;;;;;;6070115;23;20318;-85
2023/10/28 07:02:46;;;;;;;22.17;15.25;;;9.60;99.90;;;;;;6047720;23;20014;-87
2023/10/28 07:05:14;;;;;;;23.65;15.07;;;9.60;99.90;;;;;;6048034;23;20556;-93
2023/10/28 07:07:51;;;;;;;25.95;16.60;;;9.60;99.90;;;;;;6023155;23;20019;-91
2023/10/28 07:10:21;;;;;;;23.52;14.50;;;9.00;99.90;;;;;;6048459;23;20029;-89
2023/10/28 07:12:47;;;;;;;17.15;12.50;;;9.60;99.90;;;;;;6072475;23;20462;-86
2023/10/28 07:15:12;;;;;;;19.30;13.30;;;9.60;99.90;;;;;;6047314;23;20026;-84
2023/10/28 07:17:39;;;;;;;20.63;13.97;;;9.60;99.90;;;;;;6071450;23;20143;-88
2023/10/28 07:20:41;;;;;;;;;;;;;;;;;;;;;
2023/10/28 07:23:40;;;;;;;;;;;;;;;;;;;;;
2023/10/28 07:26:06;;;;;;;20.30;13.73;;;10.10;99.90;;;;;;6052566;23;20018;-87
2023/10/28 07:28:45;;;;;;;;;;;;;;;;;;;;;
2023/10/28 07:31:21;;;;;;;21.75;12.38;;;9.60;99.90;;;;;;6072085;23;20431;-91
2023/10/28 07:34:00;;;;;;;20.50;11.65;;;9.60;99.90;;;;;;6048272;23;20025;-91
2023/10/28 07:36:53;;;;;;;17.80;11.88;;;9.60;99.90;;;;;;6006389;23;20018;-90
2023/10/28 07:39:35;;;;;;;17.77;11.77;;;10.40;99.90;;;;;;6026064;23;20027;-90
2023/10/28 07:42:15;;;;;;;17.90;11.50;;;9.60;99.90;;;;;;6048289;23;20015;-89
2023/10/28 07:44:46;;;;;;;14.95;9.90;;;9.70;99.90;;;;;;6047322;23;20022;-90
2023/10/28 07:47:20;;;;;;;14.73;11.20;;;9.70;99.90;;;;;;6071437;23;20022;-91
2023/10/28 07:49:57;;;;;;;20.05;11.82;;;9.70;99.90;;;;;;6025233;23;20018;-92
2023/10/28 07:52:40;;;;;;;16.13;11.00;;;9.80;99.90;;;;;;6047965;23;20395;-90
2023/10/28 07:55:20;;;;;;;15.80;11.02;;;9.80;99.90;;;;;;6046711;23;20018;-93
2023/10/28 07:58:06;;;;;;;13.10;9.32;;;9.80;99.90;;;;;;6026460;23;20058;-91
2023/10/28 08:01:05;;;;;;;;;;;;;;;;;;;;;
2023/10/28 08:03:33;;;;;;;15.68;10.00;;;9.80;99.90;;;;;;6050377;23;20085;-90
2023/10/28 08:06:18;;;;;;;;;;;;;;;;;;;;;
2023/10/28 08:08:44;;;;;;;13.88;8.68;;;9.80;99.90;;;;;;6072443;23;20015;-86
2023/10/28 08:11:13;;;;;;;14.93;9.87;;;9.90;99.90;;;;;;6047421;23;20057;-87
2023/10/28 08:13:39;;;;;;;14.50;9.07;;;9.90;99.90;;;;;;6070901;23;20706;-91
2023/10/28 08:16:12;;;;;;;17.95;9.82;;;10.40;99.90;;;;;;6071297;23;20019;-89
2023/10/28 08:18:40;;;;;;;15.45;9.38;;;10.00;99.90;;;;;;6047162;23;20506;-90
2023/10/28 08:21:14;;;;;;;15.32;9.27;;;9.50;99.90;;;;;;6047772;23;20019;-90
2023/10/28 08:23:56;;;;;;;12.95;8.88;;;9.90;99.90;;;;;;6047007;23;20018;-92
2023/10/28 08:26:45;;;;;;;;;;;;;;;;;;;;;
2023/10/28 08:29:35;;;;;;;10.07;7.93;;;9.90;99.90;;;;;;6026908;23;20018;-88
2023/10/28 08:32:00;;;;;;;14.82;9.05;;;9.90;99.90;;;;;;6026435;23;20467;-90
2023/10/28 08:34:29;;;;;;;11.10;8.10;;;10.00;99.90;;;;;;6069975;23;20018;-91
2023/10/28 08:37:15;;;;;;;;;;;;;;;;;;;;;
2023/10/28 08:39:53;;;;;;;;;;;;;;;;;;;;;
2023/10/28 08:42:20;;;;;;;12.55;7.85;;;9.80;99.90;;;;;;6070363;23;20019;-92
2023/10/28 08:44:48;;;;;;;13.18;8.10;;;9.90;99.90;;;;;;6070641;23;20019;-94
2023/10/28 08:47:26;;;;;;;12.13;7.80;;;10.10;99.90;;;;;;6095787;23;20023;-92
2023/10/28 08:49:56;;;;;;;12.82;8.13;;;10.10;99.90;;;;;;6070819;23;20018;-90
2023/10/28 08:53:01;;;;;;;;;;;;;;;;;;;;;
2023/10/28 08:55:37;;;;;;;14.40;7.80;;;10.20;99.90;;;;;;6070481;23;20093;-91
2023/10/28 08:58:11;;;;;;;9.18;7.00;;;10.20;99.90;;;;;;6095508;23;20073;-92
2023/10/28 09:00:42;;;;;;;12.82;7.18;;;10.20;99.90;;;;;;6094906;23;20049;-91
2023/10/28 09:03:17;;;;;;;10.68;7.18;;;10.20;99.90;;;;;;6048366;23;20099;-91
2023/10/28 09:06:00;;;;;;;12.15;7.50;;;10.30;99.90;;;;;;6071315;23;20065;-91
2023/10/28 09:08:32;;;;;;;10.93;6.57;;;10.20;99.90;;;;;;6046741;23;20027;-90
2023/10/28 09:11:00;;;;;;;9.27;7.22;;;10.20;99.90;;;;;;6071308;23;20097;-90
2023/10/28 09:16:26;;;;;;;14.07;8.02;;;9.90;99.90;;;;;;6055470;23;20026;-92
2023/10/28 09:19:08;;;;;;;10.15;6.75;;;9.40;99.90;;;;;;6047344;23;20029;-92
2023/10/28 09:21:41;;;;;;;12.02;7.55;;;10.50;99.90;;;;;;6024441;23;20320;-95
2023/10/28 09:24:11;;;;;;;16.75;8.18;;;10.30;99.90;;;;;;6070271;23;20026;-93
2023/10/28 09:26:40;;;;;;;12.98;8.00;;;10.40;99.90;;;;;;6070698;23;20022;-93
2023/10/28 09:29:30;;;;;;;9.05;6.88;;;10.40;99.90;;;;;;6046567;23;20029;-92
2023/10/28 09:32:17;;;;;;;16.83;9.07;;;10.40;99.90;;;;;;6046446;23;20019;-94
2023/10/28 09:35:09;;;;;;;11.65;7.10;;;10.80;99.90;;;;;;6071102;23;20022;-93
2023/10/28 09:37:46;;;;;;;;;;;;;;;;;;;;;
2023/10/28 09:40:27;;;;;;;11.85;7.65;;;10.70;99.90;;;;;;6083044;23;20046;-87
2023/10/28 09:43:02;;;;;;;11.15;8.02;;;10.70;99.90;;;;;;6088618;23;20023;-87
2023/10/28 09:45:30;;;;;;;12.20;7.93;;;10.60;99.90;;;;;;6081436;23;20029;-88
2023/10/28 09:51:24;;;;;;;28.58;9.57;;;10.70;99.90;;;;;;6064555;23;20026;-89
2023/10/28 09:54:18;;;;;;;;;;;;;;;;;;;;;
2023/10/28 09:56:55;;;;;;;8.07;7.15;;;10.70;99.90;;;;;;6073303;23;20014;-90
2023/10/28 09:59:29;;;;;;;10.98;7.57;;;10.70;99.90;;;;;;6050045;23;20081;-94
2023/10/28 10:02:33;;;;;;;10.82;7.95;;;10.80;99.90;;;;;;6096117;23;20018;-90
2023/10/28 10:05:10;;;;;;;7.07;6.05;;;10.90;99.90;;;;;;6072860;23;20025;-93
2023/10/28 10:07:40;;;;;;;11.57;6.35;;;11.00;99.90;;;;;;6048162;23;20077;-90
2023/10/28 10:10:13;;;;;;;9.30;6.10;;;10.90;99.90;;;;;;6071354;23;20018;-92
2023/10/28 10:12:42;;;;;;;9.80;6.50;;;10.90;99.90;;;;;;6095500;23;20019;-91
2023/10/28 10:15:13;;;;;;;11.13;6.80;;;10.40;99.90;;;;;;6095557;23;20026;-90
2023/10/28 10:17:56;;;;;;;8.88;6.78;;;10.80;99.90;;;;;;6046946;23;20022;-89
2023/10/28 10:20:26;;;;;;;8.63;6.72;;;11.60;99.90;;;;;;6047512;23;20085;-88
2023/10/28 10:23:06;;;;;;;10.55;6.78;;;10.80;99.90;;;;;;6102902;23;20042;-87
2023/10/28 10:25:43;;;;;;;7.88;6.57;;;10.80;99.90;;;;;;6070715;23;20025;-87
2023/10/28 10:28:28;;;;;;;;;;;;;;;;;;;;;
2023/10/28 10:30:58;;;;;;;11.98;7.10;;;10.70;99.90;;;;;;6071027;23;19917;-89
2023/10/28 10:33:31;;;;;;;12.85;7.40;;;10.70;99.90;;;;;;6071166;23;20469;-90
2023/10/28 10:36:02;;;;;;;12.13;6.15;;;10.80;99.90;;;;;;6046290;23;20018;-90
2023/10/28 10:41:28;;;;;;;11.52;6.32;;;10.80;99.90;;;;;;6069670;23;20506;-86
2023/10/28 10:44:27;;;;;;;11.10;7.25;;;9.90;99.90;;;;;;6071252;23;20041;-90
2023/10/28 10:47:21;;;;;;;11.63;7.88;;;10.30;99.90;;;;;;6047167;23;20023;-89
2023/10/28 10:49:52;;;;;;;8.07;6.57;;;10.90;99.90;;;;;;6069691;23;20097;-92
2023/10/28 10:52:26;;;;;;;9.15;6.97;;;11.00;99.90;;;;;;6045951;23;20021;-89
2023/10/28 10:54:58;;;;;;;15.30;7.70;;;10.20;99.90;;;;;;6074487;23;20078;-91
2023/10/28 10:57:30;;;;;;;7.38;6.10;;;11.00;99.90;;;;;;6080884;23;20461;-84
2023/10/28 11:00:05;;;;;;;7.32;6.25;;;11.10;99.90;;;;;;6062493;23;20070;-91
2023/10/28 11:02:35;;;;;;;10.25;6.60;;;11.60;99.90;;;;;;6076651;23;20023;-91
2023/10/28 11:05:05;;;;;;;9.43;6.55;;;11.10;99.90;;;;;;6046954;23;20030;-90
2023/10/28 11:07:32;;;;;;;8.50;6.20;;;11.10;99.90;;;;;;6069512;23;20028;-91
2023/10/28 11:10:00;;;;;;;8.90;6.25;;;11.20;99.90;;;;;;6070700;23;20022;-92
2023/10/28 11:12:29;;;;;;;8.73;6.38;;;11.00;99.90;;;;;;6045068;23;20343;-93
2023/10/28 11:14:55;;;;;;;9.98;6.15;;;11.20;99.90;;;;;;6046651;23;20014;-88
2023/10/28 11:17:24;;;;;;;;;;;11.30;99.90;;;;;;6096977;23;20018;-90
2023/10/28 11:19:54;;;;;;;10.45;6.60;;;11.30;99.90;;;;;;6045489;23;19945;-91
2023/10/28 11:22:25;;;;;;;6.75;5.32;;;11.40;99.90;;;;;;6047602;23;20347;-91
2023/10/28 11:25:04;;;;;;;7.38;5.97;;;11.40;99.90;;;;;;6046459;23;20320;-92
2023/10/28 11:27:40;;;;;;;9.70;5.93;;;11.40;99.90;;;;;;6046276;23;20018;-90
2023/10/28 11:30:14;;;;;;;16.00;7.65;;;11.40;99.90;;;;;;6046632;23;20026;-95
2023/10/28 11:32:45;;;;;;;13.32;6.47;;;11.50;99.90;;;;;;6048287;23;20097;-88
2023/10/28 11:35:22;;;;;;;10.95;6.60;;;11.60;99.90;;;;;;6073173;23;20061;-91
2023/10/28 11:37:56;;;;;;;9.50;5.80;;;11.50;99.90;;;;;;6049094;23;20109;-92
2023/10/28 11:40:27;;;;;;;9.55;5.85;;;11.60;99.90;;;;;;6048102;23;20023;-89
2023/10/28 11:43:05;;;;;;;7.15;6.13;;;11.70;99.90;;;;;;6071310;23;20014;-92
2023/10/28 11:45:38;;;;;;;6.05;5.13;;;11.70;99.90;;;;;;6024143;23;20351;-91
2023/10/28 11:48:07;;;;;;;11.30;5.80;;;12.00;99.90;;;;;;6048506;23;20091;-92
2023/10/28 11:50:44;;;;;;;6.72;5.10;;;11.60;99.90;;;;;;6070914;23;20075;-90
2023/10/28 11:53:19;;;;;;;7.43;5.75;;;11.70;99.90;;;;;;6047461;23;20041;-89
2023/10/28 11:55:45;;;;;;;7.32;4.78;;;11.70;99.90;;;;;;6047899;23;20029;-88
2023/10/28 11:58:14;;;;;;;7.90;5.68;;;11.80;99.90;;;;;;6096611;23;20014;-87
2023/10/28 12:00:50;;;;;;;7.40;5.18;;;11.80;99.90;;;;;;6047666;23;20022;-90
2023/10/28 12:03:50;;;;;;;7.35;4.47;;;11.80;99.90;;;;;;6040977;23;20103;-90
2023/10/28 12:06:50;;;;;;;6.90;5.03;;;12.00;99.90;;;;;;6097449;23;20332;-89
2023/10/28 12:09:38;;;;;;;7.57;5.15;;;12.00;99.90;;;;;;6071625;23;20015;-88
2023/10/28 12:12:08;;;;;;;7.25;5.35;;;12.00;99.90;;;;;;6047961;23;20014;-87
2023/10/28 12:14:33;;;;;;;8.60;4.55;;;12.00;99.90;;;;;;6026356;23;20050;-87
2023/10/28 12:17:02;;;;;;;10.80;5.35;;;12.00;99.90;;;;;;6071791;23;20435;-87
2023/10/28 12:19:30;;;;;;;6.68;4.32;;;11.90;99.90;;;;;;6096038;23;20023;-89
2023/10/28 12:22:40;;;;;;;8.43;4.97;;;11.90;99.90;;;;;;6048220;23;20482;-89
2023/10/28 12:25:09;;;;;;;8.38;4.65;;;12.00;99.90;;;;;;6096149;23;20069;-88
2023/10/28 12:27:38;;;;;;;9.32;4.50;;;11.90;99.90;;;;;;6025022;23;20455;-88
2023/10/28 12:30:08;;;;;;;5.38;4.75;;;11.90;99.90;;;;;;6048234;23;20022;-89
2023/10/28 12:32:36;;;;;;;7.70;4.88;;;11.90;99.90;;;;;;6048003;23;20073;-89
2023/10/28 12:35:02;;;;;;;6.05;5.10;;;12.00;99.90;;;;;;6072229;23;20029;-89
2023/10/28 12:40:54;;;;;;;8.90;4.70;;;11.30;99.90;;;;;;6093367;23;20022;-90
2023/10/28 12:43:20;;;;;;;7.53;4.77;;;12.00;99.90;;;;;;6048287;23;20348;-88
2023/10/28 12:49:32;;;;;;;5.03;4.32;;;12.00;99.90;;;;;;6097876;23;20085;-84
2023/10/28 12:51:59;;;;;;;7.70;3.97;;;11.90;99.90;;;;;;6070037;23;20058;-89
2023/10/28 12:54:24;;;;;;;8.65;4.72;;;11.90;99.90;;;;;;6071583;23;20095;-87
2023/10/28 12:56:51;;;;;;;7.80;4.57;;;11.90;99.90;;;;;;6047775;23;20030;-87
2023/10/28 12:59:20;;;;;;;10.77;4.90;;;11.80;99.90;;;;;;6023227;23;20022;-85
2023/10/28 13:01:50;;;;;;;8.23;4.13;;;10.90;99.90;;;;;;6024671;23;20045;-85
2023/10/28 13:04:17;;;;;;;11.82;4.65;;;11.80;99.90;;;;;;6047242;23;20019;-85
2023/10/28 13:06:42;;;;;;;9.00;3.97;;;11.80;99.90;;;;;;6046442;23;20018;-91
2023/10/28 13:09:11;;;;;;;8.50;3.97;;;11.80;99.90;;;;;;6023309;23;20015;-83
2023/10/28 13:11:40;;;;;;;9.27;3.90;;;11.80;99.90;;;;;;6071117;23;20053;-83
2023/10/28 13:14:06;;;;;;;9.00;4.18;;;11.90;99.90;;;;;;6096591;23;20018;-86
2023/10/28 13:16:34;;;;;;;6.65;4.47;;;12.00;99.90;;;;;;6071337;23;20023;-83
2023/10/28 13:19:03;;;;;;;6.75;4.03;;;12.10;99.90;;;;;;6071330;23;20022;-85
2023/10/28 13:21:29;;;;;;;5.68;3.90;;;12.20;99.90;;;;;;6096900;23;20069;-86
2023/10/28 13:23:55;;;;;;;4.82;3.38;;;12.30;99.90;;;;;;6049154;23;20109;-85
2023/10/28 13:26:23;;;;;;;6.45;3.53;;;12.30;99.90;;;;;;6049217;23;20022;-83
2023/10/28 13:28:50;;;;;;;5.88;3.38;;;12.40;99.90;;;;;;6099231;23;20099;-85
2023/10/28 13:31:16;;;;;;;11.38;3.45;;;12.40;99.90;;;;;;6073201;23;20057;-85
2023/10/28 13:33:41;;;;;;;7.80;3.75;;;12.40;99.90;;;;;;6073488;23;20022;-85
2023/10/28 13:36:08;;;;;;;6.20;3.47;;;12.90;99.90;;;;;;6073247;23;20025;-85
2023/10/28 13:38:35;;;;;;;5.10;3.03;;;12.60;99.90;;;;;;6073588;23;20018;-86
2023/10/28 13:48:39;;;;;;;9.82;4.93;;;12.50;99.90;;;;;;6099036;23;20018;-85